createdAt,value
2023-04-19T00:01:34.232Z,6.13
2023-04-19T00:04:03.637Z,6.14
2023-04-19T00:06:31.830Z,6.14
2023-04-19T00:08:59.033Z,6.14
2023-04-19T00:11:26.267Z,6.17
2023-04-19T00:13:53.440Z,6.18
2023-04-19T00:16:21.401Z,6.19
2023-04-19T00:18:48.578Z,6.20
2023-04-19T00:21:15.809Z,6.21
2023-04-19T00:23:42.950Z,6.22
2023-04-19T00:26:11.543Z,6.24
2023-04-19T00:28:38.733Z,6.24
2023-04-19T00:31:05.927Z,6.21
2023-04-19T00:33:33.554Z,6.22
2023-04-19T00:36:00.732Z,6.21
2023-04-19T00:38:27.928Z,6.21
2023-04-19T00:40:55.605Z,6.20
2023-04-19T00:43:22.850Z,6.16
2023-04-19T00:45:50.122Z,6.12
2023-04-19T00:48:17.432Z,6.09
2023-04-19T00:50:44.982Z,6.08
2023-04-19T00:53:12.299Z,6.08
2023-04-19T00:55:39.802Z,6.01
2023-04-19T00:58:08.381Z,6.00
2023-04-19T01:00:36.290Z,5.98
2023-04-19T01:03:04.226Z,5.94
2023-04-19T01:05:31.678Z,5.91
2023-04-19T01:07:59.033Z,5.90
2023-04-19T01:10:26.242Z,5.87
2023-04-19T01:12:53.383Z,5.82
2023-04-19T01:15:21.004Z,5.82
2023-04-19T01:17:48.327Z,5.81
2023-04-19T01:20:15.614Z,5.76
2023-04-19T01:22:42.820Z,5.73
2023-04-19T01:25:10.474Z,5.65
2023-04-19T01:27:37.629Z,5.58
2023-04-19T01:30:05.428Z,5.53
2023-04-19T01:32:32.778Z,5.44
2023-04-19T01:34:59.912Z,5.40
2023-04-19T01:37:27.663Z,5.33
2023-04-19T01:39:54.850Z,5.28
2023-04-19T01:42:22.108Z,5.24
2023-04-19T01:44:49.339Z,5.20
2023-04-19T01:47:16.589Z,5.16
2023-04-19T01:49:43.832Z,5.11
2023-04-19T01:52:11.424Z,5.03
2023-04-19T01:54:38.544Z,4.98
2023-04-19T01:57:05.697Z,4.91
2023-04-19T01:59:32.911Z,4.88
2023-04-19T02:02:00.211Z,4.83
2023-04-19T02:04:27.748Z,4.77
2023-04-19T02:06:54.910Z,4.76
2023-04-19T02:09:22.026Z,4.72
2023-04-19T02:11:49.326Z,4.69
2023-04-19T02:14:16.939Z,4.67
2023-04-19T02:16:44.454Z,4.64
2023-04-19T02:19:11.677Z,4.60
2023-04-19T02:21:38.828Z,4.56
2023-04-19T02:24:06.277Z,4.52
2023-04-19T02:26:33.491Z,4.49
2023-04-19T02:29:00.837Z,4.46
2023-04-19T02:31:28.156Z,4.45
2023-04-19T02:33:55.507Z,4.42
2023-04-19T02:36:22.692Z,4.39
2023-04-19T02:38:49.923Z,4.37
2023-04-19T02:41:17.120Z,4.35
2023-04-19T02:43:44.324Z,4.31
2023-04-19T02:46:11.485Z,4.29
2023-04-19T02:48:38.953Z,4.26
2023-04-19T02:51:06.152Z,4.25
2023-04-19T02:53:33.830Z,4.23
2023-04-19T02:56:01.439Z,4.23
2023-04-19T02:58:28.831Z,4.22
2023-04-19T03:00:56.199Z,4.18
2023-04-19T03:03:23.442Z,4.15
2023-04-19T03:05:50.613Z,4.10
2023-04-19T03:08:17.879Z,4.04
2023-04-19T03:10:44.990Z,4.02
2023-04-19T03:13:12.164Z,3.96
2023-04-19T03:15:39.327Z,3.95
2023-04-19T03:18:06.466Z,3.92
2023-04-19T03:20:34.397Z,3.88
2023-04-19T03:23:02.442Z,3.85
2023-04-19T03:25:29.709Z,3.81
2023-04-19T03:27:57.109Z,3.78
2023-04-19T03:30:24.309Z,3.75
2023-04-19T03:32:52.938Z,3.72
2023-04-19T03:35:21.182Z,3.70
2023-04-19T03:37:48.372Z,3.66
2023-04-19T03:40:15.642Z,3.64
2023-04-19T03:42:42.796Z,3.62
2023-04-19T03:45:10.394Z,3.60
2023-04-19T03:47:37.610Z,3.58
2023-04-19T03:50:05.262Z,3.58
2023-04-19T03:52:32.567Z,3.56
2023-04-19T03:54:59.737Z,3.54
2023-04-19T03:57:27.699Z,3.53
2023-04-19T03:59:54.824Z,3.51
2023-04-19T04:02:22.173Z,3.46
2023-04-19T04:04:56.069Z,3.46
2023-04-19T04:07:24.605Z,3.43
2023-04-19T04:09:51.897Z,3.44
2023-04-19T04:12:19.159Z,3.41
2023-04-19T04:14:47.321Z,3.39
2023-04-19T04:17:14.426Z,3.38
2023-04-19T04:19:41.829Z,3.37
2023-04-19T04:22:08.983Z,3.34
2023-04-19T04:24:41.380Z,3.33
2023-04-19T04:27:12.267Z,3.33
2023-04-19T04:29:39.987Z,3.33
2023-04-19T04:32:08.724Z,3.40
2023-04-19T04:34:37.236Z,3.41
2023-04-19T04:37:04.711Z,3.41
2023-04-19T04:39:35.070Z,3.42
2023-04-19T04:42:03.208Z,3.44
2023-04-19T04:44:30.408Z,3.48
2023-04-19T04:46:57.624Z,3.51
2023-04-19T04:49:24.796Z,3.52
2023-04-19T04:51:51.909Z,3.55
2023-04-19T04:54:19.109Z,3.57
2023-04-19T04:56:46.283Z,3.61
2023-04-19T04:59:13.514Z,3.67
2023-04-19T05:01:41.070Z,3.68
2023-04-19T05:04:08.246Z,3.71
2023-04-19T05:06:35.427Z,3.72
2023-04-19T05:09:03.281Z,3.74
2023-04-19T05:11:30.503Z,3.79
2023-04-19T05:13:57.723Z,3.91
2023-04-19T05:16:27.589Z,3.93
2023-04-19T05:18:54.795Z,3.97
2023-04-19T05:21:22.447Z,4.02
2023-04-19T05:23:49.626Z,4.06
2023-04-19T05:26:16.958Z,4.13
2023-04-19T05:28:45.465Z,4.17
2023-04-19T05:31:12.689Z,4.25
2023-04-19T05:33:39.975Z,4.31
2023-04-19T05:36:07.652Z,4.40
2023-04-19T05:38:34.846Z,4.47
2023-04-19T05:41:03.586Z,4.51
2023-04-19T05:43:31.105Z,4.60
2023-04-19T05:45:58.353Z,4.68
2023-04-19T05:48:25.690Z,4.74
2023-04-19T05:50:56.321Z,4.84
2023-04-19T05:53:23.805Z,4.93
2023-04-19T05:55:52.131Z,4.98
2023-04-19T05:58:19.313Z,5.06
2023-04-19T06:00:46.777Z,5.17
2023-04-19T06:03:14.407Z,5.24
2023-04-19T06:05:41.941Z,5.29
2023-04-19T06:08:09.572Z,5.43
2023-04-19T06:10:52.678Z,5.51
2023-04-19T06:13:23.258Z,5.59
2023-04-19T06:15:50.533Z,5.69
2023-04-19T06:18:19.178Z,5.74
2023-04-19T06:20:47.185Z,5.81
2023-04-19T06:23:14.961Z,5.92
2023-04-19T06:25:42.627Z,6.09
2023-04-19T06:28:11.113Z,6.19
2023-04-19T06:30:38.249Z,6.28
2023-04-19T06:33:05.366Z,6.34
2023-04-19T06:35:32.798Z,6.46
2023-04-19T06:38:00.012Z,6.58
2023-04-19T06:40:29.321Z,6.66
2023-04-19T06:42:56.624Z,6.77
2023-04-19T06:45:23.853Z,6.82
2023-04-19T06:47:51.366Z,6.92
2023-04-19T06:50:18.719Z,7.05
2023-04-19T06:52:45.854Z,7.24
2023-04-19T06:55:13.183Z,7.34
2023-04-19T06:57:40.772Z,7.49
2023-04-19T07:00:08.666Z,7.58
2023-04-19T07:02:36.013Z,7.64
2023-04-19T07:05:03.856Z,7.74
2023-04-19T07:07:31.009Z,7.86
2023-04-19T07:09:58.169Z,8.01
2023-04-19T07:12:25.493Z,8.06
2023-04-19T07:14:56.426Z,8.12
2023-04-19T07:17:24.148Z,8.21
2023-04-19T07:19:51.362Z,8.27
2023-04-19T07:22:18.572Z,8.41
2023-04-19T07:24:45.807Z,8.54
2023-04-19T07:27:14.332Z,8.66
2023-04-19T07:29:41.476Z,8.81
2023-04-19T07:32:08.813Z,8.97
2023-04-19T07:34:38.099Z,9.02
2023-04-19T07:37:05.397Z,9.09
2023-04-19T07:39:32.961Z,9.15
2023-04-19T07:42:02.261Z,9.22
2023-04-19T07:44:29.513Z,9.36
2023-04-19T07:47:21.586Z,9.53
2023-04-19T07:49:53.448Z,9.58
2023-04-19T07:52:20.698Z,9.60
2023-04-19T07:55:07.119Z,9.70
2023-04-19T07:57:35.188Z,9.80
2023-04-19T08:00:02.435Z,9.81
2023-04-19T08:02:29.797Z,9.91
2023-04-19T08:04:58.039Z,10.01
2023-04-19T08:07:26.220Z,10.15
2023-04-19T08:09:53.539Z,10.30
2023-04-19T08:15:04.706Z,10.49
2023-04-19T08:17:42.361Z,10.64
2023-04-19T08:20:11.575Z,10.77
2023-04-19T08:22:39.831Z,10.76
2023-04-19T08:25:08.147Z,10.93
2023-04-19T08:27:35.957Z,11.04
2023-04-19T08:30:04.267Z,11.11
2023-04-19T08:32:31.692Z,11.24
2023-04-19T08:35:00.987Z,11.42
2023-04-19T08:37:28.139Z,11.60
2023-04-19T08:39:55.373Z,11.86
2023-04-19T08:42:33.084Z,12.01
2023-04-19T08:47:51.853Z,12.24
2023-04-19T08:50:33.413Z,12.41
2023-04-19T08:53:20.788Z,12.65
2023-04-19T08:58:36.514Z,12.99
2023-04-19T09:01:12.726Z,13.07
2023-04-19T09:04:00.563Z,13.16
2023-04-19T09:06:38.843Z,13.45
2023-04-19T09:09:33.383Z,13.78
2023-04-19T09:12:04.069Z,14.24
2023-04-19T09:14:31.259Z,14.27
2023-04-19T09:17:16.755Z,14.01
2023-04-19T09:19:48.298Z,13.90
2023-04-19T09:22:15.920Z,13.61
2023-04-19T09:27:16.771Z,13.71
2023-04-19T09:29:53.096Z,13.87
2023-04-19T09:32:20.374Z,13.81
2023-04-19T09:34:58.911Z,14.01
2023-04-19T09:37:51.347Z,14.32
2023-04-19T09:40:24.235Z,14.56
2023-04-19T09:45:29.857Z,14.41
2023-04-19T09:48:05.480Z,14.10
2023-04-19T09:50:34.153Z,13.74
2023-04-19T09:53:10.406Z,13.46
2023-04-19T09:55:52.689Z,13.71
2023-04-19T09:58:29.355Z,14.01
2023-04-19T10:01:14.317Z,14.23
2023-04-19T10:03:46.430Z,14.39
2023-04-19T10:08:50.492Z,14.37
2023-04-19T10:11:19.150Z,14.47
2023-04-19T10:13:47.392Z,14.61
2023-04-19T10:16:19.521Z,14.72
2023-04-19T10:18:50.024Z,14.80
2023-04-19T10:21:18.222Z,14.94
2023-04-19T10:23:45.658Z,15.05
2023-04-19T10:26:12.866Z,15.04
2023-04-19T10:28:41.899Z,14.85
2023-04-19T10:31:13.258Z,14.92
2023-04-19T10:33:41.378Z,15.23
2023-04-19T10:36:09.824Z,15.14
2023-04-19T10:38:48.541Z,15.22
2023-04-19T10:41:17.922Z,15.09
2023-04-19T10:44:36.205Z,15.13
2023-04-19T10:47:05.684Z,15.23
2023-04-19T10:49:44.792Z,15.23
2023-04-19T10:52:29.564Z,15.18
2023-04-19T10:54:56.989Z,15.16
2023-04-19T10:57:25.337Z,15.38
2023-04-19T11:00:21.880Z,15.64
2023-04-19T11:02:49.210Z,15.73
2023-04-19T11:05:18.445Z,15.96
2023-04-19T11:07:47.027Z,16.13
2023-04-19T11:10:28.255Z,16.24
2023-04-19T11:12:55.828Z,16.32
2023-04-19T11:15:24.300Z,16.55
2023-04-19T11:18:01.005Z,16.99
2023-04-19T11:20:32.077Z,17.32
2023-04-19T11:23:01.005Z,17.18
2023-04-19T11:25:31.483Z,16.96
2023-04-19T11:28:00.475Z,16.79
2023-04-19T11:30:31.053Z,16.44
2023-04-19T11:32:58.458Z,16.17
2023-04-19T11:35:30.312Z,15.98
2023-04-19T11:37:58.859Z,16.02
2023-04-19T11:40:26.498Z,16.18
2023-04-19T11:43:00.516Z,16.26
2023-04-19T11:45:39.702Z,16.18
2023-04-19T11:48:14.332Z,16.08
2023-04-19T11:50:43.176Z,15.83
2023-04-19T11:53:14.858Z,15.45
2023-04-19T11:55:45.316Z,15.30
2023-04-19T11:58:30.113Z,15.22
2023-04-19T12:01:06.309Z,15.15
2023-04-19T12:03:35.004Z,15.12
2023-04-19T12:06:04.129Z,15.31
2023-04-19T12:08:36.201Z,15.66
2023-04-19T12:11:04.478Z,15.88
2023-04-19T12:13:32.754Z,16.09
2023-04-19T12:16:00.390Z,16.03
2023-04-19T12:18:28.015Z,16.08
2023-04-19T12:20:55.388Z,16.09
2023-04-19T12:23:22.657Z,15.84
2023-04-19T12:25:50.101Z,15.67
2023-04-19T12:28:17.490Z,15.51
2023-04-19T12:30:44.832Z,15.48
2023-04-19T12:33:12.268Z,15.62
2023-04-19T12:35:39.765Z,15.60
2023-04-19T12:38:07.054Z,15.61
2023-04-19T12:40:34.322Z,15.56
2023-04-19T12:43:02.329Z,15.61
2023-04-19T12:45:29.480Z,15.77
2023-04-19T12:47:57.211Z,16.28
2023-04-19T12:50:24.559Z,16.86
2023-04-19T12:52:53.637Z,17.25
2023-04-19T12:55:20.920Z,17.48
2023-04-19T12:57:48.134Z,18.02
2023-04-19T13:00:15.658Z,18.68
2023-04-19T13:02:43.301Z,19.32
2023-04-19T13:05:12.891Z,19.58
2023-04-19T13:07:40.365Z,19.38
2023-04-19T13:10:08.027Z,19.43
2023-04-19T13:12:36.217Z,19.47
2023-04-19T13:15:06.642Z,19.01
2023-04-19T13:17:36.106Z,18.61
2023-04-19T13:20:04.035Z,18.26
2023-04-19T13:22:31.333Z,17.99
2023-04-19T13:24:58.674Z,17.76
2023-04-19T13:27:26.224Z,17.55
2023-04-19T13:29:56.768Z,17.18
2023-04-19T13:32:24.126Z,16.76
2023-04-19T13:34:51.414Z,16.55
2023-04-19T13:37:18.769Z,16.37
2023-04-19T13:39:46.211Z,15.99
2023-04-19T13:42:14.235Z,15.47
2023-04-19T13:44:41.522Z,15.02
2023-04-19T13:47:08.789Z,14.77
2023-04-19T13:52:03.231Z,14.22
2023-04-19T13:54:30.509Z,14.04
2023-04-19T13:56:58.046Z,13.87
2023-04-19T13:59:26.144Z,13.73
2023-04-19T14:01:55.822Z,13.57
2023-04-19T14:04:24.566Z,13.37
2023-04-19T14:06:52.329Z,13.11
2023-04-19T14:09:19.678Z,12.74
2023-04-19T14:11:48.283Z,12.46
2023-04-19T14:14:16.144Z,12.42
2023-04-19T14:16:44.081Z,12.48
2023-04-19T14:19:11.439Z,12.55
2023-04-19T14:21:38.643Z,12.91
2023-04-19T14:24:06.161Z,13.38
2023-04-19T14:26:33.432Z,13.73
2023-04-19T14:29:00.964Z,13.95
2023-04-19T14:31:28.737Z,13.73
2023-04-19T14:33:56.706Z,13.63
2023-04-19T14:36:23.894Z,13.35
2023-04-19T14:38:51.940Z,13.10
2023-04-19T14:41:19.178Z,12.88
2023-04-19T14:43:46.929Z,12.76
2023-04-19T14:46:14.283Z,12.64
2023-04-19T14:48:41.619Z,12.38
2023-04-19T14:51:09.026Z,12.13
2023-04-19T14:53:36.207Z,12.05
2023-04-19T14:56:05.714Z,11.90
2023-04-19T14:58:33.940Z,11.81
2023-04-19T15:01:10.949Z,11.60
2023-04-19T15:03:38.392Z,11.38
2023-04-19T15:06:06.000Z,11.12
2023-04-19T15:08:33.413Z,10.82
2023-04-19T15:11:00.630Z,10.65
2023-04-19T15:13:29.665Z,10.54
2023-04-19T15:15:57.415Z,10.44
2023-04-19T15:18:24.675Z,10.33
2023-04-19T15:20:51.916Z,10.17
2023-04-19T15:23:24.380Z,10.02
2023-04-19T15:25:52.203Z,9.80
2023-04-19T15:28:19.643Z,9.70
2023-04-19T15:30:57.719Z,9.47
2023-04-19T15:33:25.340Z,9.23
2023-04-19T15:35:53.443Z,9.00
2023-04-19T15:38:25.916Z,8.76
2023-04-19T15:40:54.766Z,8.43
2023-04-19T15:43:22.868Z,8.22
2023-04-19T15:45:50.428Z,7.99
2023-04-19T15:48:18.037Z,7.76
2023-04-19T15:50:45.281Z,7.54
2023-04-19T15:53:12.750Z,7.33
2023-04-19T15:55:41.424Z,7.10
2023-04-19T15:58:08.908Z,6.99
2023-04-19T16:00:36.159Z,7.01
2023-04-19T16:03:04.415Z,6.97
2023-04-19T16:05:31.792Z,6.91
2023-04-19T16:08:03.938Z,6.87
2023-04-19T16:10:31.414Z,6.79
2023-04-19T16:12:58.848Z,6.69
2023-04-19T16:15:26.235Z,6.70
2023-04-19T16:17:53.505Z,6.69
2023-04-19T16:20:20.777Z,6.71
2023-04-19T16:22:48.396Z,6.73
2023-04-19T16:25:16.507Z,6.70
2023-04-19T16:27:45.799Z,6.66
2023-04-19T16:30:14.195Z,6.63
2023-04-19T16:32:41.767Z,6.57
2023-04-19T16:35:09.934Z,6.53
2023-04-19T16:37:37.353Z,6.57
2023-04-19T16:40:09.890Z,6.60
2023-04-19T16:42:38.570Z,6.64
2023-04-19T16:45:10.151Z,6.66
2023-04-19T16:47:38.791Z,6.64
2023-04-19T16:50:06.624Z,6.62
2023-04-19T16:52:35.649Z,6.58
2023-04-19T16:55:06.182Z,6.58
2023-04-19T16:57:33.633Z,6.54
2023-04-19T17:00:01.022Z,6.49
2023-04-19T17:02:28.454Z,6.41
2023-04-19T17:04:56.581Z,6.40
2023-04-19T17:07:24.111Z,6.42
2023-04-19T17:09:51.560Z,6.44
2023-04-19T17:12:18.984Z,6.44
2023-04-19T17:14:46.311Z,6.41
2023-04-19T17:17:13.515Z,6.34
2023-04-19T17:19:40.772Z,6.30
2023-04-19T17:22:07.969Z,6.27
2023-04-19T17:24:35.192Z,6.31
2023-04-19T17:27:02.596Z,6.33
2023-04-19T17:29:30.181Z,6.32
2023-04-19T17:31:57.603Z,6.33
2023-04-19T17:34:25.321Z,6.29
2023-04-19T17:36:52.633Z,6.32
2023-04-19T17:39:22.088Z,6.29
2023-04-19T17:41:49.286Z,6.25
2023-04-19T17:44:21.301Z,6.22
2023-04-19T17:46:49.567Z,6.21
2023-04-19T17:49:19.032Z,6.19
2023-04-19T17:51:47.422Z,6.22
2023-04-19T17:54:15.914Z,6.25
2023-04-19T17:56:43.964Z,6.26
2023-04-19T17:59:12.712Z,6.26
2023-04-19T18:05:20.531Z,6.23
2023-04-19T18:07:47.795Z,6.21
2023-04-19T18:10:15.257Z,6.21
2023-04-19T18:12:45.065Z,6.24
2023-04-19T18:15:21.401Z,6.24
2023-04-19T18:17:49.133Z,6.24
2023-04-19T18:20:18.161Z,6.22
2023-04-19T18:22:50.417Z,6.24
2023-04-19T18:25:18.509Z,6.24
2023-04-19T18:27:50.457Z,6.25
2023-04-19T18:30:21.436Z,6.28
2023-04-19T18:32:50.724Z,6.29
2023-04-19T18:35:18.395Z,6.30
2023-04-19T18:37:46.751Z,6.34
2023-04-19T18:40:14.216Z,6.34
2023-04-19T18:42:44.400Z,6.35
2023-04-19T18:45:12.119Z,6.36
2023-04-19T18:47:39.320Z,6.33
2023-04-19T18:50:08.960Z,6.36
2023-04-19T18:52:36.745Z,6.36
2023-04-19T18:55:08.562Z,6.37
2023-04-19T18:57:36.105Z,6.40
2023-04-19T19:00:11.453Z,6.43
2023-04-19T19:02:41.016Z,6.44
2023-04-19T19:05:09.452Z,6.48
2023-04-19T19:07:44.194Z,6.50
2023-04-19T19:10:19.155Z,6.49
2023-04-19T19:12:49.593Z,6.47
2023-04-19T19:15:20.474Z,6.48
2023-04-19T19:17:51.320Z,6.46
2023-04-19T19:20:22.355Z,6.46
2023-04-19T19:22:51.263Z,6.48
2023-04-19T19:25:19.807Z,6.49
2023-04-19T19:28:06.114Z,6.50
2023-04-19T19:30:39.721Z,6.50
2023-04-19T19:33:07.725Z,6.51
2023-04-19T19:35:35.052Z,6.53
2023-04-19T19:38:05.197Z,6.51
2023-04-19T19:40:33.121Z,6.54
2023-04-19T19:43:06.546Z,6.54
2023-04-19T19:45:34.097Z,6.57
2023-04-19T19:48:02.400Z,6.61
2023-04-19T19:53:00.796Z,6.58
2023-04-19T19:55:28.827Z,6.60
2023-04-19T20:02:57.273Z,6.55
2023-04-19T20:05:26.483Z,6.57
2023-04-19T20:08:05.825Z,6.56
2023-04-19T20:10:33.414Z,6.56
2023-04-19T20:13:01.601Z,6.56
2023-04-19T20:15:30.441Z,6.56
2023-04-19T20:17:57.976Z,6.57
2023-04-19T20:20:25.335Z,6.57
2023-04-19T20:22:52.571Z,6.60
2023-04-19T20:25:19.924Z,6.60
2023-04-19T20:27:47.101Z,6.61
2023-04-19T20:30:14.573Z,6.62
2023-04-19T20:32:44.915Z,6.63
2023-04-19T20:35:12.550Z,6.64
2023-04-19T20:37:40.319Z,6.66
2023-04-19T20:40:13.935Z,6.67
2023-04-19T20:42:41.695Z,6.67
2023-04-19T20:45:14.261Z,6.66
2023-04-19T20:47:42.953Z,6.65
2023-04-19T20:50:10.910Z,6.62
2023-04-19T20:52:38.341Z,6.59
2023-04-19T20:55:06.154Z,6.57
2023-04-19T20:57:34.493Z,6.56
2023-04-19T21:00:02.745Z,6.56
2023-04-19T21:02:30.090Z,6.55
2023-04-19T21:04:57.323Z,6.56
2023-04-19T21:07:24.598Z,6.55
2023-04-19T21:09:51.830Z,6.58
2023-04-19T21:12:19.032Z,6.59
2023-04-19T21:14:49.258Z,6.60
2023-04-19T21:17:16.736Z,6.63
2023-04-19T21:19:44.079Z,6.63
2023-04-19T21:22:11.320Z,6.62
2023-04-19T21:24:38.549Z,6.62
2023-04-19T21:27:05.968Z,6.59
2023-04-19T21:29:33.489Z,6.58
2023-04-19T21:32:01.031Z,6.60
2023-04-19T21:34:28.532Z,6.59
2023-04-19T21:36:55.919Z,6.58
2023-04-19T21:39:23.141Z,6.58
2023-04-19T21:41:50.581Z,6.59
2023-04-19T21:44:17.756Z,6.56
2023-04-19T21:46:44.979Z,6.55
2023-04-19T21:49:12.179Z,6.58
2023-04-19T21:51:39.421Z,6.61
2023-04-19T21:54:06.729Z,6.62
2023-04-19T21:56:34.107Z,6.58
2023-04-19T21:59:02.302Z,6.58
2023-04-19T22:01:29.495Z,6.55
2023-04-19T22:03:57.164Z,6.53
2023-04-19T22:06:24.705Z,6.54
2023-04-19T22:08:52.329Z,6.55
2023-04-19T22:11:20.040Z,6.56
2023-04-19T22:13:47.282Z,6.56
2023-04-19T22:16:42.284Z,6.58
2023-04-19T22:19:10.782Z,6.57
2023-04-19T22:21:38.124Z,6.58
2023-04-19T22:24:05.899Z,6.59
2023-04-19T22:26:33.070Z,6.62
2023-04-19T22:29:00.318Z,6.63
2023-04-19T22:31:27.917Z,6.63
2023-04-19T22:33:55.424Z,6.62
2023-04-19T22:36:22.848Z,6.61
2023-04-19T22:38:50.187Z,6.62
2023-04-19T22:41:17.416Z,6.62
2023-04-19T22:43:45.740Z,6.60
2023-04-19T22:46:13.287Z,6.60
2023-04-19T22:48:40.821Z,6.60
2023-04-19T22:51:08.073Z,6.59
2023-04-19T22:53:37.282Z,6.55
2023-04-19T22:56:05.117Z,6.55
2023-04-19T22:58:32.575Z,6.57
2023-04-19T23:00:59.868Z,6.59
2023-04-19T23:03:27.866Z,6.63
2023-04-19T23:05:56.092Z,6.64
2023-04-19T23:08:24.966Z,6.63
2023-04-19T23:10:52.228Z,6.63
2023-04-19T23:13:19.667Z,6.62
2023-04-19T23:15:50.660Z,6.62
2023-04-19T23:18:18.345Z,6.60
2023-04-19T23:20:45.657Z,6.57
2023-04-19T23:23:12.946Z,6.56
2023-04-19T23:25:40.274Z,6.58
2023-04-19T23:28:07.462Z,6.55
2023-04-19T23:30:34.640Z,6.54
2023-04-19T23:33:02.301Z,6.58
2023-04-19T23:35:31.598Z,6.59
2023-04-19T23:37:59.510Z,6.60
2023-04-19T23:40:27.753Z,6.57
2023-04-19T23:42:54.963Z,6.58
2023-04-19T23:45:22.454Z,6.57
2023-04-19T23:47:50.077Z,6.55
2023-04-19T23:50:17.439Z,6.56
2023-04-19T23:52:44.789Z,6.54
2023-04-19T23:55:12.558Z,6.54
2023-04-19T23:57:39.945Z,6.56
